createdAt,value
2023-06-24T00:01:53.701Z,18.80
2023-06-24T00:06:49.507Z,18.70
2023-06-24T00:09:17.151Z,18.60
2023-06-24T00:11:44.980Z,18.60
2023-06-24T00:14:12.623Z,18.50
2023-06-24T00:16:40.135Z,18.40
2023-06-24T00:21:38.767Z,18.40
2023-06-24T00:24:06.569Z,18.40
2023-06-24T00:26:34.239Z,18.40
2023-06-24T00:29:01.898Z,18.40
2023-06-24T00:33:57.835Z,18.40
2023-06-24T00:36:25.361Z,18.50
2023-06-24T00:38:52.915Z,18.50
2023-06-24T00:43:49.078Z,18.50
2023-06-24T00:46:16.882Z,18.50
2023-06-24T00:48:44.505Z,18.50
2023-06-24T00:53:40.921Z,18.60
2023-06-24T00:56:08.734Z,18.50
2023-06-24T00:58:38.273Z,18.50
2023-06-24T01:01:09.736Z,18.60
2023-06-24T01:03:38.388Z,18.60
2023-06-24T01:06:06.455Z,18.60
2023-06-24T01:08:34.104Z,18.60
2023-06-24T01:11:01.763Z,18.60
2023-06-24T01:13:29.283Z,18.60
2023-06-24T01:16:01.442Z,18.60
2023-06-24T01:18:41.260Z,18.60
2023-06-24T01:21:29.211Z,18.60
2023-06-24T01:24:50.693Z,18.50
2023-06-24T01:27:42.820Z,18.50
2023-06-24T01:30:16.269Z,18.40
2023-06-24T01:33:10.955Z,18.40
2023-06-24T01:35:41.118Z,18.40
2023-06-24T01:40:44.183Z,18.40
2023-06-24T01:45:52.096Z,18.30
2023-06-24T01:48:27.375Z,18.30
2023-06-24T01:51:14.418Z,18.20
2023-06-24T01:53:49.596Z,18.20
2023-06-24T01:56:20.123Z,18.20
2023-06-24T01:58:49.855Z,18.30
2023-06-24T02:01:17.923Z,18.30
2023-06-24T02:03:46.598Z,18.30
2023-06-24T02:06:16.502Z,18.30
2023-06-24T02:08:44.952Z,18.40
2023-06-24T02:11:16.915Z,18.40
2023-06-24T02:16:19.035Z,18.40
2023-06-24T02:18:48.897Z,18.40
2023-06-24T02:21:19.611Z,18.40
2023-06-24T02:23:49.413Z,18.40
2023-06-24T02:26:18.134Z,18.50
2023-06-24T02:28:47.540Z,18.40
2023-06-24T02:31:16.701Z,18.50
2023-06-24T02:33:44.516Z,18.50
2023-06-24T02:36:13.154Z,18.50
2023-06-24T02:38:40.687Z,18.40
2023-06-24T02:41:08.347Z,18.50
2023-06-24T02:46:07.335Z,18.40
2023-06-24T02:48:37.973Z,18.40
2023-06-24T02:51:07.935Z,18.40
2023-06-24T02:53:36.628Z,18.40
2023-06-24T02:56:05.772Z,18.40
2023-06-24T02:58:39.867Z,18.40
2023-06-24T03:03:50.930Z,18.30
2023-06-24T03:06:20.298Z,18.30
2023-06-24T03:08:50.536Z,18.30
2023-06-24T03:11:20.992Z,18.20
2023-06-24T03:13:49.666Z,18.20
2023-06-24T03:16:28.314Z,18.20
2023-06-24T03:19:22.442Z,18.10
2023-06-24T03:21:50.768Z,18.10
2023-06-24T03:26:51.811Z,18.10
2023-06-24T03:32:01.664Z,17.90
2023-06-24T03:34:29.589Z,18.00
2023-06-24T03:39:26.592Z,17.90
2023-06-24T03:41:54.350Z,17.90
2023-06-24T03:44:22.175Z,18.00
2023-06-24T03:49:18.239Z,18.10
2023-06-24T03:51:45.949Z,18.10
2023-06-24T03:54:13.664Z,18.10
2023-06-24T03:56:41.347Z,18.10
2023-06-24T03:59:09.329Z,18.00
2023-06-24T04:01:37.703Z,18.00
2023-06-24T04:04:05.788Z,18.00
2023-06-24T04:06:34.287Z,18.00
2023-06-24T04:09:02.912Z,18.00
2023-06-24T04:14:01.226Z,18.00
2023-06-24T04:16:29.060Z,18.00
2023-06-24T04:18:57.411Z,18.10
2023-06-24T04:21:25.101Z,18.00
2023-06-24T04:23:52.938Z,18.10
2023-06-24T04:26:21.513Z,18.10
2023-06-24T04:28:49.159Z,18.10
2023-06-24T04:31:17.925Z,18.10
2023-06-24T04:33:45.688Z,18.10
2023-06-24T04:38:41.559Z,18.00
2023-06-24T04:41:09.939Z,18.00
2023-06-24T04:46:05.380Z,18.00
2023-06-24T04:48:32.890Z,18.00
2023-06-24T04:51:00.565Z,18.00
2023-06-24T04:53:28.336Z,18.00
2023-06-24T04:55:56.003Z,18.00
2023-06-24T05:00:51.415Z,18.00
2023-06-24T05:03:18.993Z,18.00
2023-06-24T05:05:46.806Z,18.00
2023-06-24T05:08:14.791Z,18.10
2023-06-24T05:13:10.429Z,18.20
2023-06-24T05:20:34.186Z,18.20
2023-06-24T05:23:01.901Z,18.30
2023-06-24T05:25:29.586Z,18.30
2023-06-24T05:27:57.165Z,18.30
2023-06-24T05:30:24.891Z,18.40
2023-06-24T05:32:52.806Z,18.40
2023-06-24T05:35:20.626Z,19.20
2023-06-24T05:40:16.927Z,18.60
2023-06-24T05:45:12.637Z,18.70
2023-06-24T05:47:40.379Z,18.70
2023-06-24T05:50:08.411Z,18.80
2023-06-24T05:52:36.055Z,18.90
2023-06-24T05:55:03.835Z,21.20
2023-06-24T05:57:31.671Z,18.90
2023-06-24T05:59:59.142Z,18.90
2023-06-24T06:02:26.701Z,19.00
2023-06-24T06:04:54.451Z,19.10
2023-06-24T06:07:22.157Z,19.10
2023-06-24T06:09:50.043Z,19.20
2023-06-24T06:12:18.719Z,19.20
2023-06-24T06:17:15.293Z,19.30
2023-06-24T06:19:43.008Z,19.30
2023-06-24T06:22:10.645Z,19.30
2023-06-24T06:27:11.994Z,19.50
2023-06-24T06:29:39.677Z,19.50
2023-06-24T06:32:07.782Z,19.60
2023-06-24T06:34:35.544Z,19.60
2023-06-24T06:37:03.181Z,19.60
2023-06-24T06:39:30.876Z,19.60
2023-06-24T06:41:58.497Z,19.70
2023-06-24T06:44:27.503Z,19.70
2023-06-24T06:49:23.541Z,20.00
2023-06-24T06:51:53.526Z,20.20
2023-06-24T06:54:21.158Z,20.30
2023-06-24T06:56:51.321Z,20.50
2023-06-24T06:59:19.044Z,20.60
2023-06-24T07:01:46.731Z,20.60
2023-06-24T07:04:14.434Z,20.70
2023-06-24T07:06:41.979Z,20.80
2023-06-24T07:09:09.596Z,18.90
2023-06-24T07:11:37.229Z,20.90
2023-06-24T07:14:04.832Z,20.90
2023-06-24T07:16:32.466Z,21.00
2023-06-24T07:19:00.146Z,21.00
2023-06-24T07:21:27.912Z,21.10
2023-06-24T07:23:55.768Z,21.00
2023-06-24T07:26:23.398Z,21.10
2023-06-24T07:31:37.813Z,21.30
2023-06-24T07:34:06.472Z,21.40
2023-06-24T07:36:34.210Z,21.40
2023-06-24T07:39:02.006Z,21.70
2023-06-24T07:43:57.643Z,22.00
2023-06-24T07:46:25.585Z,22.00
2023-06-24T07:48:53.498Z,22.20
2023-06-24T07:51:21.462Z,22.30
2023-06-24T07:53:49.157Z,22.40
2023-06-24T07:56:17.140Z,22.30
2023-06-24T07:58:44.750Z,22.30
2023-06-24T08:01:12.569Z,22.20
2023-06-24T08:03:40.648Z,22.20
2023-06-24T08:06:08.801Z,22.10
2023-06-24T08:08:37.222Z,22.10
2023-06-24T08:13:33.059Z,22.30
2023-06-24T08:16:00.635Z,22.30
2023-06-24T08:18:28.310Z,22.50
2023-06-24T08:20:56.143Z,22.60
2023-06-24T08:23:23.736Z,22.70
2023-06-24T08:25:52.760Z,22.80
2023-06-24T08:28:24.102Z,22.90
2023-06-24T08:30:51.976Z,22.90
2023-06-24T08:33:20.422Z,22.90
2023-06-24T08:35:48.495Z,22.80
2023-06-24T08:38:16.204Z,22.80
2023-06-24T08:40:44.849Z,22.70
2023-06-24T08:43:12.472Z,22.90
2023-06-24T08:45:41.206Z,22.90
2023-06-24T08:48:09.941Z,23.10
2023-06-24T08:50:44.736Z,23.30
2023-06-24T08:53:14.198Z,23.40
2023-06-24T08:55:44.857Z,23.50
2023-06-24T08:58:14.416Z,23.70
2023-06-24T09:00:44.018Z,23.80
2023-06-24T09:03:12.156Z,23.90
2023-06-24T09:08:08.244Z,23.90
2023-06-24T09:10:38.496Z,23.80
2023-06-24T09:13:07.405Z,23.60
2023-06-24T09:15:40.399Z,23.60
2023-06-24T09:18:08.534Z,23.60
2023-06-24T09:23:08.777Z,23.60
2023-06-24T09:25:36.863Z,23.60
2023-06-24T09:28:05.644Z,23.60
2023-06-24T09:30:34.326Z,23.60
2023-06-24T09:33:02.032Z,23.60
2023-06-24T09:35:36.120Z,23.70
2023-06-24T09:40:37.858Z,23.90
2023-06-24T09:43:05.777Z,23.90
2023-06-24T09:45:33.995Z,24.00
2023-06-24T09:53:01.413Z,24.60
2023-06-24T09:55:29.635Z,24.50
2023-06-24T10:00:27.861Z,24.50
2023-06-24T10:02:58.523Z,24.50
2023-06-24T10:05:28.266Z,24.60
2023-06-24T10:07:56.096Z,24.60
2023-06-24T10:10:23.814Z,26.50
2023-06-24T10:12:51.363Z,24.60
2023-06-24T10:15:19.055Z,24.80
2023-06-24T10:17:47.258Z,24.80
2023-06-24T10:20:24.324Z,24.70
2023-06-24T10:22:52.638Z,24.70
2023-06-24T10:25:22.086Z,24.70
2023-06-24T10:27:55.110Z,24.60
2023-06-24T10:30:29.680Z,24.50
2023-06-24T10:32:57.438Z,24.40
2023-06-24T10:38:01.796Z,24.20
2023-06-24T10:40:41.516Z,24.20
2023-06-24T10:43:28.409Z,24.50
2023-06-24T10:46:02.834Z,24.60
2023-06-24T10:48:30.546Z,24.70
2023-06-24T10:50:58.701Z,25.90
2023-06-24T10:53:27.826Z,24.60
2023-06-24T10:55:59.560Z,24.60
2023-06-24T10:58:27.282Z,24.50
2023-06-24T11:00:57.135Z,24.50
2023-06-24T11:05:53.115Z,24.70
2023-06-24T11:08:21.753Z,24.70
2023-06-24T11:10:49.988Z,24.90
2023-06-24T11:13:21.709Z,24.70
2023-06-24T11:15:49.585Z,24.70
2023-06-24T11:18:17.398Z,24.70
2023-06-24T11:20:44.932Z,24.70
2023-06-24T11:23:12.654Z,24.80
2023-06-24T11:25:44.700Z,25.00
2023-06-24T11:28:21.181Z,24.90
2023-06-24T11:30:50.395Z,24.90
2023-06-24T11:33:30.522Z,24.60
2023-06-24T11:35:58.606Z,24.50
2023-06-24T11:38:33.386Z,24.50
2023-06-24T11:43:30.293Z,24.50
2023-06-24T11:48:30.399Z,24.70
2023-06-24T11:50:58.368Z,25.00
2023-06-24T11:53:43.414Z,25.40
2023-06-24T11:56:11.568Z,25.70
2023-06-24T11:58:40.130Z,26.20
2023-06-24T12:01:09.300Z,26.80
2023-06-24T12:03:37.173Z,27.00
2023-06-24T12:06:04.957Z,27.20
2023-06-24T12:08:47.209Z,27.30
2023-06-24T12:11:20.695Z,27.10
2023-06-24T12:13:48.515Z,26.90
2023-06-24T12:16:16.315Z,26.90
2023-06-24T12:18:44.156Z,27.00
2023-06-24T12:21:11.979Z,27.10
2023-06-24T12:23:39.903Z,27.50
2023-06-24T12:28:35.444Z,27.90
2023-06-24T12:36:00.355Z,32.10
2023-06-24T12:38:27.977Z,28.40
2023-06-24T12:40:55.959Z,29.00
2023-06-24T12:43:23.781Z,29.10
2023-06-24T12:45:52.427Z,29.20
2023-06-24T12:48:20.419Z,29.20
2023-06-24T12:58:16.392Z,27.80
2023-06-24T13:00:44.307Z,27.30
2023-06-24T13:03:12.018Z,27.10
2023-06-24T13:05:40.069Z,27.10
2023-06-24T13:08:08.140Z,27.60
2023-06-24T13:10:36.042Z,28.20
2023-06-24T13:13:04.467Z,28.70
2023-06-24T13:15:32.644Z,28.90
2023-06-24T13:18:00.628Z,28.60
2023-06-24T13:20:28.630Z,28.50
2023-06-24T13:25:26.299Z,28.40
2023-06-24T13:27:54.138Z,28.50
2023-06-24T13:30:22.963Z,29.00
2023-06-24T13:32:50.804Z,29.40
2023-06-24T13:37:47.135Z,29.40
2023-06-24T13:40:14.865Z,29.70
2023-06-24T13:42:42.532Z,30.20
2023-06-24T13:45:11.304Z,30.80
2023-06-24T13:47:39.031Z,31.30
2023-06-24T13:50:07.268Z,31.20
2023-06-24T13:52:34.890Z,31.20
2023-06-24T13:55:02.727Z,30.90
2023-06-24T13:57:30.460Z,29.70
2023-06-24T13:59:58.334Z,29.00
2023-06-24T14:02:27.503Z,28.40
2023-06-24T14:04:55.293Z,27.80
2023-06-24T14:07:23.396Z,27.40
2023-06-24T14:09:51.304Z,27.20
2023-06-24T14:12:19.024Z,27.00
2023-06-24T14:14:46.837Z,26.90
2023-06-24T14:17:14.595Z,26.90
2023-06-24T14:22:10.727Z,27.00
2023-06-24T14:24:39.115Z,26.90
2023-06-24T14:27:07.792Z,27.00
2023-06-24T14:29:35.537Z,27.30
2023-06-24T14:32:03.881Z,27.50
2023-06-24T14:34:31.978Z,27.80
2023-06-24T14:36:59.811Z,28.10
2023-06-24T14:39:30.620Z,28.20
2023-06-24T14:41:58.828Z,28.50
2023-06-24T14:44:26.423Z,29.30
2023-06-24T14:46:56.948Z,29.80
2023-06-24T14:49:25.392Z,30.30
2023-06-24T14:51:53.730Z,30.40
2023-06-24T14:54:21.530Z,30.20
2023-06-24T14:59:17.418Z,29.20
2023-06-24T15:04:13.295Z,28.90
2023-06-24T15:06:41.365Z,28.30
2023-06-24T15:09:09.033Z,27.80
2023-06-24T15:11:37.838Z,27.40
2023-06-24T15:14:05.766Z,27.20
2023-06-24T15:16:33.814Z,27.00
2023-06-24T15:19:01.537Z,26.80
2023-06-24T15:24:05.859Z,26.60
2023-06-24T15:26:33.533Z,26.80
2023-06-24T15:29:01.742Z,26.90
2023-06-24T15:31:29.714Z,26.90
2023-06-24T15:33:58.056Z,27.50
2023-06-24T15:36:28.108Z,27.60
2023-06-24T15:38:58.525Z,27.90
2023-06-24T15:41:27.715Z,28.00
2023-06-24T15:43:55.414Z,27.90
2023-06-24T15:46:24.310Z,27.90
2023-06-24T15:48:52.448Z,27.90
2023-06-24T15:51:20.779Z,27.70
2023-06-24T15:53:49.096Z,27.80
2023-06-24T15:56:17.832Z,27.80
2023-06-24T15:58:45.478Z,27.90
2023-06-24T16:01:14.434Z,27.90
2023-06-24T16:03:43.902Z,28.10
2023-06-24T16:06:11.810Z,28.40
2023-06-24T16:08:39.760Z,29.20
2023-06-24T16:11:08.364Z,29.80
2023-06-24T16:13:36.224Z,30.00
2023-06-24T16:16:04.929Z,30.30
2023-06-24T16:18:32.611Z,30.30
2023-06-24T16:23:28.505Z,30.30
2023-06-24T16:25:56.880Z,29.90
2023-06-24T16:28:24.538Z,29.50
2023-06-24T16:31:37.303Z,30.30
2023-06-24T16:34:05.483Z,28.80
2023-06-24T16:36:33.240Z,28.50
2023-06-24T16:39:01.184Z,28.40
2023-06-24T16:41:28.939Z,28.20
2023-06-24T16:43:56.601Z,27.90
2023-06-24T16:48:52.511Z,27.80
2023-06-24T16:51:20.548Z,27.80
2023-06-24T16:53:48.233Z,27.80
2023-06-24T16:56:16.039Z,27.90
2023-06-24T16:58:43.701Z,28.00
2023-06-24T17:01:11.400Z,28.00
2023-06-24T17:06:07.628Z,28.00
2023-06-24T17:08:35.374Z,27.90
2023-06-24T17:11:03.077Z,27.80
2023-06-24T17:13:31.924Z,27.70
2023-06-24T17:15:59.611Z,27.70
2023-06-24T17:18:28.178Z,27.80
2023-06-24T17:20:55.730Z,27.90
2023-06-24T17:23:23.532Z,28.20
2023-06-24T17:25:51.170Z,28.40
2023-06-24T17:28:19.441Z,28.60
2023-06-24T17:30:47.084Z,28.70
2023-06-24T17:33:14.984Z,28.70
2023-06-24T17:35:42.608Z,28.70
2023-06-24T17:40:38.398Z,28.50
2023-06-24T17:43:06.292Z,28.30
2023-06-24T17:45:35.781Z,28.20
2023-06-24T17:48:04.150Z,28.10
2023-06-24T17:50:34.156Z,28.00
2023-06-24T17:53:02.581Z,28.00
2023-06-24T17:55:35.389Z,27.90
2023-06-24T17:58:06.898Z,28.00
2023-06-24T18:00:45.209Z,27.90
2023-06-24T18:03:14.690Z,27.90
2023-06-24T18:05:44.626Z,27.80
2023-06-24T18:08:13.204Z,27.60
2023-06-24T18:13:11.088Z,27.30
2023-06-24T18:18:09.663Z,27.10
2023-06-24T18:20:48.018Z,27.10
2023-06-24T18:23:17.695Z,27.00
2023-06-24T18:25:52.329Z,26.90
2023-06-24T18:34:16.815Z,26.70
2023-06-24T18:36:44.872Z,26.50
2023-06-24T18:39:12.519Z,26.60
2023-06-24T18:41:40.180Z,26.30
2023-06-24T18:44:08.969Z,26.30
2023-06-24T18:46:37.345Z,25.90
2023-06-24T18:49:04.980Z,25.80
2023-06-24T18:51:32.787Z,25.70
2023-06-24T18:54:00.366Z,25.70
2023-06-24T18:56:27.933Z,25.70
2023-06-24T18:58:56.211Z,25.60
2023-06-24T19:03:51.868Z,25.90
2023-06-24T19:06:19.538Z,26.20
2023-06-24T19:08:48.657Z,26.20
2023-06-24T19:11:16.139Z,27.20
2023-06-24T19:13:44.112Z,27.20
2023-06-24T19:16:12.341Z,28.30
2023-06-24T19:18:41.164Z,28.80
2023-06-24T19:23:51.511Z,29.00
2023-06-24T19:26:19.535Z,28.80
2023-06-24T19:28:50.892Z,28.70
2023-06-24T19:31:19.362Z,28.90
2023-06-24T19:36:31.227Z,29.40
2023-06-24T19:39:01.196Z,29.50
2023-06-24T19:41:33.064Z,29.40
2023-06-24T19:44:08.672Z,28.80
2023-06-24T19:46:41.684Z,28.20
2023-06-24T19:49:11.654Z,27.40
2023-06-24T19:51:40.236Z,26.80
2023-06-24T19:54:08.344Z,26.20
2023-06-24T19:56:35.971Z,25.80
2023-06-24T20:01:32.153Z,25.00
2023-06-24T20:04:00.888Z,24.90
2023-06-24T20:06:29.812Z,24.60
2023-06-24T20:08:57.500Z,24.40
2023-06-24T20:16:21.840Z,23.90
2023-06-24T20:18:51.665Z,23.80
2023-06-24T20:21:19.477Z,23.60
2023-06-24T20:26:16.766Z,23.40
2023-06-24T20:28:44.604Z,23.30
2023-06-24T20:31:13.734Z,23.30
2023-06-24T20:33:41.456Z,24.80
2023-06-24T20:36:09.325Z,21.80
2023-06-24T20:38:37.662Z,22.80
2023-06-24T20:41:05.500Z,22.90
2023-06-24T20:43:34.943Z,22.60
2023-06-24T20:46:02.778Z,22.60
2023-06-24T20:48:30.497Z,22.60
2023-06-24T20:50:58.476Z,22.50
2023-06-24T20:53:26.135Z,22.50
2023-06-24T20:55:53.699Z,22.40
2023-06-24T20:58:21.309Z,22.20
2023-06-24T21:00:49.773Z,22.20
2023-06-24T21:03:17.606Z,22.20
2023-06-24T21:05:45.268Z,22.10
2023-06-24T21:08:12.859Z,22.10
2023-06-24T21:10:41.563Z,22.00
2023-06-24T21:13:09.304Z,22.00
2023-06-24T21:15:44.079Z,22.00
2023-06-24T21:18:12.783Z,21.90
2023-06-24T21:20:43.879Z,21.80
2023-06-24T21:25:46.709Z,21.50
2023-06-24T21:30:42.890Z,21.50
2023-06-24T21:38:07.566Z,21.30
2023-06-24T21:40:35.449Z,21.30
2023-06-24T21:43:03.408Z,21.30
2023-06-24T21:45:31.887Z,21.20
2023-06-24T21:50:27.778Z,21.10
2023-06-24T21:52:55.960Z,21.10
2023-06-24T21:55:23.964Z,21.00
2023-06-24T22:00:21.090Z,21.00
2023-06-24T22:02:49.488Z,21.00
2023-06-24T22:05:29.133Z,21.00
2023-06-24T22:08:02.571Z,21.00
2023-06-24T22:13:12.316Z,21.00
2023-06-24T22:18:11.593Z,20.90
2023-06-24T22:23:18.288Z,20.80
2023-06-24T22:28:14.610Z,20.70
2023-06-24T22:35:40.051Z,20.60
2023-06-24T22:38:07.877Z,20.60
2023-06-24T22:40:35.912Z,20.50
2023-06-24T22:43:04.314Z,20.50
2023-06-24T22:45:32.725Z,20.40
2023-06-24T22:48:00.720Z,20.40
2023-06-24T22:50:31.784Z,20.40
2023-06-24T22:52:59.759Z,20.40
2023-06-24T22:55:27.828Z,20.30
2023-06-24T22:57:55.674Z,20.30
2023-06-24T23:00:24.044Z,20.30
2023-06-24T23:02:52.586Z,20.30
2023-06-24T23:05:20.735Z,20.20
2023-06-24T23:07:48.841Z,20.20
2023-06-24T23:10:17.040Z,20.20
2023-06-24T23:12:47.209Z,20.20
2023-06-24T23:15:15.945Z,20.20
2023-06-24T23:17:44.420Z,20.10
2023-06-24T23:20:13.599Z,20.20
2023-06-24T23:22:41.832Z,20.20
2023-06-24T23:25:11.354Z,20.20
2023-06-24T23:27:40.790Z,20.20
2023-06-24T23:30:09.631Z,20.20
2023-06-24T23:32:40.003Z,20.20
2023-06-24T23:35:09.758Z,20.20
2023-06-24T23:37:38.488Z,20.20
2023-06-24T23:40:08.837Z,20.20
2023-06-24T23:42:39.240Z,20.20
2023-06-24T23:45:08.334Z,20.20
2023-06-24T23:47:36.017Z,20.20
2023-06-24T23:50:03.848Z,20.10
2023-06-24T23:52:31.403Z,20.20
2023-06-24T23:54:59.328Z,20.20
2023-06-24T23:57:27.367Z,20.10
2023-06-24T23:59:54.993Z,20.10
